createdAt,value
2023-02-25T00:02:04.766Z,24.40
2023-02-25T00:04:32.254Z,24.20
2023-02-25T00:06:59.412Z,24.67
2023-02-25T00:09:27.088Z,22.07
2023-02-25T00:11:54.200Z,24.40
2023-02-25T00:14:21.292Z,23.30
2023-02-25T00:16:49.938Z,23.43
2023-02-25T00:19:17.093Z,25.53
2023-02-25T00:21:44.668Z,19.80
2023-02-25T00:24:16.704Z,21.33
2023-02-25T00:26:44.081Z,20.23
2023-02-25T00:29:11.203Z,30.13
2023-02-25T00:31:38.489Z,21.80
2023-02-25T00:34:05.717Z,21.23
2023-02-25T00:36:33.114Z,18.27
2023-02-25T00:39:00.312Z,22.43
2023-02-25T00:41:28.653Z,19.93
2023-02-25T00:43:57.441Z,20.07
2023-02-25T00:46:25.885Z,21.67
2023-02-25T00:48:53.494Z,21.80
2023-02-25T00:51:24.314Z,21.60
2023-02-25T00:53:52.138Z,17.77
2023-02-25T00:56:20.296Z,20.30
2023-02-25T00:58:49.041Z,19.57
2023-02-25T01:01:24.134Z,16.20
2023-02-25T01:03:52.123Z,17.07
2023-02-25T01:06:20.249Z,19.30
2023-02-25T01:08:47.662Z,16.93
2023-02-25T01:11:16.167Z,18.33
2023-02-25T01:13:43.846Z,12.47
2023-02-25T01:16:30.228Z,15.27
2023-02-25T01:18:59.109Z,11.97
2023-02-25T01:21:27.631Z,14.00
2023-02-25T01:23:58.910Z,11.07
2023-02-25T01:26:27.244Z,15.70
2023-02-25T01:28:55.825Z,14.57
2023-02-25T01:31:25.029Z,14.00
2023-02-25T01:33:52.274Z,13.43
2023-02-25T01:36:19.524Z,15.30
2023-02-25T01:38:46.811Z,16.23
2023-02-25T01:41:13.947Z,12.20
2023-02-25T01:43:41.506Z,13.40
2023-02-25T01:46:08.718Z,11.27
2023-02-25T01:48:37.439Z,13.43
2023-02-25T01:51:09.212Z,14.93
2023-02-25T01:53:39.210Z,15.67
2023-02-25T01:56:06.534Z,13.63
2023-02-25T01:58:34.393Z,21.70
2023-02-25T02:01:01.774Z,15.03
2023-02-25T02:03:31.809Z,17.07
2023-02-25T02:06:04.735Z,15.50
2023-02-25T02:08:33.024Z,15.37
2023-02-25T02:11:00.226Z,14.50
2023-02-25T02:13:27.461Z,18.33
2023-02-25T02:16:03.343Z,15.97
2023-02-25T02:18:32.584Z,13.87
2023-02-25T02:21:10.134Z,12.13
2023-02-25T02:23:56.049Z,14.60
2023-02-25T02:26:33.350Z,15.27
2023-02-25T02:29:10.847Z,14.20
2023-02-25T02:31:41.112Z,14.43
2023-02-25T02:34:20.470Z,15.40
2023-02-25T02:36:47.609Z,19.93
2023-02-25T02:39:19.123Z,15.07
2023-02-25T02:41:53.863Z,18.63
2023-02-25T02:44:23.762Z,15.90
2023-02-25T02:46:58.294Z,13.63
2023-02-25T02:49:31.139Z,16.73
2023-02-25T02:52:15.197Z,20.10
2023-02-25T02:54:44.382Z,15.80
2023-02-25T02:57:12.446Z,15.07
2023-02-25T03:00:00.264Z,14.20
2023-02-25T03:02:47.750Z,13.83
2023-02-25T03:05:19.195Z,18.03
2023-02-25T03:07:51.957Z,18.07
2023-02-25T03:10:20.579Z,20.47
2023-02-25T03:12:47.730Z,24.13
2023-02-25T03:15:14.993Z,16.37
2023-02-25T03:17:43.603Z,15.80
2023-02-25T03:20:17.268Z,19.37
2023-02-25T03:22:46.868Z,14.30
2023-02-25T03:25:16.536Z,16.43
2023-02-25T03:27:45.160Z,16.20
2023-02-25T03:30:13.035Z,17.17
2023-02-25T03:32:41.501Z,22.30
2023-02-25T03:35:10.139Z,16.07
2023-02-25T03:37:38.856Z,16.17
2023-02-25T03:40:11.477Z,16.17
2023-02-25T03:42:39.985Z,16.23
2023-02-25T03:45:08.604Z,20.27
2023-02-25T03:47:36.916Z,13.10
2023-02-25T03:50:07.801Z,11.73
2023-02-25T03:52:35.104Z,16.97
2023-02-25T03:55:03.074Z,18.17
2023-02-25T03:57:38.090Z,21.73
2023-02-25T04:00:15.530Z,16.60
2023-02-25T04:02:43.172Z,17.13
2023-02-25T04:05:10.526Z,23.17
2023-02-25T04:07:37.622Z,19.90
2023-02-25T04:10:05.536Z,18.37
2023-02-25T04:12:32.773Z,19.50
2023-02-25T04:14:59.874Z,16.20
2023-02-25T04:17:27.000Z,23.47
2023-02-25T04:19:54.122Z,19.13
2023-02-25T04:22:21.228Z,16.83
2023-02-25T04:24:48.295Z,17.17
2023-02-25T04:27:15.713Z,17.80
2023-02-25T04:29:43.382Z,15.27
2023-02-25T04:32:11.284Z,17.40
2023-02-25T04:34:38.676Z,21.73
2023-02-25T04:37:06.025Z,21.27
2023-02-25T04:39:33.482Z,15.97
2023-02-25T04:42:01.046Z,16.07
2023-02-25T04:44:28.191Z,17.37
2023-02-25T04:46:55.492Z,17.03
2023-02-25T04:49:23.289Z,21.03
2023-02-25T04:51:51.524Z,15.63
2023-02-25T04:54:19.541Z,17.77
2023-02-25T04:56:46.676Z,19.23
2023-02-25T04:59:13.841Z,16.00
2023-02-25T05:01:41.055Z,18.17
2023-02-25T05:04:08.251Z,22.20
2023-02-25T05:06:35.367Z,15.07
2023-02-25T05:09:02.777Z,17.23
2023-02-25T05:11:31.302Z,20.57
2023-02-25T05:13:58.494Z,19.67
2023-02-25T05:16:26.203Z,11.93
2023-02-25T05:18:53.689Z,21.83
2023-02-25T05:21:22.295Z,20.53
2023-02-25T05:23:50.332Z,17.03
2023-02-25T05:26:21.661Z,19.67
2023-02-25T05:28:55.321Z,17.87
2023-02-25T05:31:23.617Z,25.23
2023-02-25T05:33:51.194Z,19.63
2023-02-25T05:36:18.482Z,21.77
2023-02-25T05:38:45.741Z,17.73
2023-02-25T05:41:13.307Z,11.67
2023-02-25T05:43:40.533Z,16.73
2023-02-25T05:46:11.825Z,20.80
2023-02-25T05:48:39.629Z,16.83
2023-02-25T05:51:12.786Z,17.63
2023-02-25T05:53:40.276Z,18.40
2023-02-25T05:56:08.338Z,18.80
2023-02-25T05:58:36.081Z,14.40
2023-02-25T06:01:11.461Z,21.80
2023-02-25T06:03:38.913Z,22.07
2023-02-25T06:06:06.831Z,17.87
2023-02-25T06:08:34.219Z,13.40
2023-02-25T06:11:02.172Z,12.97
2023-02-25T06:13:29.337Z,20.80
2023-02-25T06:15:56.520Z,21.03
2023-02-25T06:18:23.688Z,23.83
2023-02-25T06:20:51.001Z,22.27
2023-02-25T06:23:18.327Z,21.60
2023-02-25T06:25:45.481Z,19.50
2023-02-25T06:28:12.700Z,19.97
2023-02-25T06:30:42.698Z,22.43
2023-02-25T06:33:09.867Z,21.03
2023-02-25T06:35:36.979Z,22.73
2023-02-25T06:38:04.214Z,19.97
2023-02-25T06:40:33.495Z,17.20
2023-02-25T06:43:00.622Z,20.23
2023-02-25T06:45:27.788Z,20.03
2023-02-25T06:47:54.963Z,16.60
2023-02-25T06:50:22.085Z,16.37
2023-02-25T06:52:49.218Z,21.97
2023-02-25T06:55:16.402Z,20.67
2023-02-25T06:57:43.503Z,22.27
2023-02-25T07:00:10.976Z,16.60
2023-02-25T07:02:38.109Z,19.93
2023-02-25T07:05:05.591Z,18.20
2023-02-25T07:07:32.789Z,22.07
2023-02-25T07:09:59.902Z,19.10
2023-02-25T07:12:26.998Z,17.90
2023-02-25T07:14:54.123Z,26.33
2023-02-25T07:17:21.440Z,18.27
2023-02-25T07:19:48.571Z,20.40
2023-02-25T07:22:16.734Z,16.00
2023-02-25T07:24:44.116Z,25.40
2023-02-25T07:27:13.044Z,17.30
2023-02-25T07:29:40.641Z,19.37
2023-02-25T07:32:09.194Z,15.87
2023-02-25T07:34:37.944Z,24.80
2023-02-25T07:37:05.079Z,26.13
2023-02-25T07:39:32.198Z,18.23
2023-02-25T07:41:59.393Z,22.53
2023-02-25T07:44:26.528Z,22.37
2023-02-25T07:46:53.650Z,15.27
2023-02-25T07:49:20.726Z,15.83
2023-02-25T07:51:47.889Z,16.47
2023-02-25T07:54:15.873Z,18.27
2023-02-25T07:56:43.005Z,16.93
2023-02-25T07:59:11.078Z,20.83
2023-02-25T08:01:39.618Z,17.60
2023-02-25T08:04:07.419Z,20.03
2023-02-25T08:06:38.304Z,21.73
2023-02-25T08:09:06.151Z,18.50
2023-02-25T08:11:33.292Z,18.13
2023-02-25T08:14:01.629Z,24.10
2023-02-25T08:16:28.821Z,14.67
2023-02-25T08:18:55.993Z,13.77
2023-02-25T08:21:24.303Z,18.50
2023-02-25T08:23:58.283Z,16.77
2023-02-25T08:26:27.549Z,14.33
2023-02-25T08:28:54.848Z,17.57
2023-02-25T08:31:22.676Z,17.20
2023-02-25T08:33:52.704Z,13.47
2023-02-25T08:36:23.716Z,16.00
2023-02-25T08:38:51.399Z,11.77
2023-02-25T08:41:19.282Z,10.93
2023-02-25T08:43:49.412Z,16.67
2023-02-25T08:46:16.583Z,14.13
2023-02-25T08:48:43.816Z,12.40
2023-02-25T08:51:11.754Z,14.23
2023-02-25T08:53:39.973Z,15.33
2023-02-25T08:56:08.270Z,11.70
2023-02-25T08:58:35.725Z,16.40
2023-02-25T09:01:08.845Z,13.03
2023-02-25T09:03:36.185Z,13.13
2023-02-25T09:06:03.396Z,14.83
2023-02-25T09:08:31.496Z,14.57
2023-02-25T09:10:58.674Z,15.80
2023-02-25T09:13:25.853Z,11.43
2023-02-25T09:15:57.172Z,15.77
2023-02-25T09:18:24.432Z,13.53
2023-02-25T09:20:51.898Z,15.63
2023-02-25T09:23:19.356Z,16.23
2023-02-25T09:25:46.499Z,19.37
2023-02-25T09:28:13.894Z,14.20
2023-02-25T09:30:41.118Z,14.27
2023-02-25T09:33:08.438Z,14.03
2023-02-25T09:35:35.685Z,12.47
2023-02-25T09:38:02.789Z,10.20
2023-02-25T09:40:29.934Z,14.80
2023-02-25T09:43:15.863Z,14.67
2023-02-25T09:45:47.337Z,15.13
2023-02-25T09:48:40.696Z,14.17
2023-02-25T09:51:22.612Z,18.27
2023-02-25T09:53:54.874Z,17.43
2023-02-25T09:56:23.736Z,15.57
2023-02-25T09:58:53.057Z,12.50
2023-02-25T10:01:34.275Z,17.53
2023-02-25T10:04:16.491Z,19.87
2023-02-25T10:06:46.821Z,13.20
2023-02-25T10:09:29.204Z,19.27
2023-02-25T10:12:10.136Z,17.40
2023-02-25T10:14:37.301Z,20.10
2023-02-25T10:17:21.986Z,21.70
2023-02-25T10:20:03.897Z,13.10
2023-02-25T10:22:35.539Z,18.00
2023-02-25T10:25:05.650Z,17.80
2023-02-25T10:27:39.639Z,16.77
2023-02-25T10:30:06.938Z,13.23
2023-02-25T10:32:37.828Z,18.53
2023-02-25T10:35:25.428Z,13.57
2023-02-25T10:37:52.990Z,20.70
2023-02-25T10:40:21.762Z,19.00
2023-02-25T10:42:50.803Z,13.80
2023-02-25T10:45:21.204Z,20.27
2023-02-25T10:47:50.213Z,16.17
2023-02-25T10:50:17.353Z,16.80
2023-02-25T10:52:56.434Z,18.53
2023-02-25T10:55:28.734Z,14.47
2023-02-25T10:57:57.705Z,14.17
2023-02-25T11:00:27.501Z,14.70
2023-02-25T11:02:54.710Z,12.77
2023-02-25T11:05:31.048Z,12.27
2023-02-25T11:07:58.293Z,16.10
2023-02-25T11:10:25.511Z,17.27
2023-02-25T11:12:54.270Z,13.70
2023-02-25T11:15:43.062Z,12.03
2023-02-25T11:18:17.371Z,10.23
2023-02-25T11:21:10.779Z,10.27
2023-02-25T11:23:44.004Z,18.93
2023-02-25T11:26:18.546Z,14.23
2023-02-25T11:28:48.618Z,11.93
2023-02-25T11:31:19.171Z,11.80
2023-02-25T11:33:50.838Z,17.33
2023-02-25T11:36:23.570Z,13.40
2023-02-25T11:39:03.560Z,12.30
2023-02-25T11:41:35.189Z,13.30
2023-02-25T11:44:31.831Z,10.93
2023-02-25T11:47:14.258Z,14.10
2023-02-25T11:49:49.514Z,15.27
2023-02-25T11:52:16.650Z,14.43
2023-02-25T11:54:43.714Z,11.20
2023-02-25T11:57:18.793Z,16.33
2023-02-25T12:00:04.852Z,10.07
2023-02-25T12:02:37.485Z,14.70
2023-02-25T12:05:23.980Z,16.90
2023-02-25T12:08:14.380Z,13.90
2023-02-25T12:10:41.735Z,16.00
2023-02-25T12:13:11.106Z,14.97
2023-02-25T12:15:45.095Z,16.67
2023-02-25T12:18:33.422Z,15.73
2023-02-25T12:21:19.830Z,19.13
2023-02-25T12:24:05.667Z,12.23
2023-02-25T12:26:43.994Z,10.50
2023-02-25T12:29:16.562Z,10.43
2023-02-25T12:32:02.114Z,8.83
2023-02-25T12:34:55.719Z,5.47
2023-02-25T12:37:32.364Z,6.87
2023-02-25T12:40:20.869Z,7.83
2023-02-25T12:42:53.801Z,7.20
2023-02-25T12:45:23.834Z,7.27
2023-02-25T12:47:52.730Z,10.67
2023-02-25T12:50:35.368Z,8.87
2023-02-25T12:53:02.487Z,5.70
2023-02-25T12:55:41.487Z,5.83
2023-02-25T12:58:16.635Z,5.27
2023-02-25T13:00:52.824Z,8.97
2023-02-25T13:03:33.605Z,6.87
2023-02-25T13:06:07.809Z,7.23
2023-02-25T13:08:47.028Z,5.07
2023-02-25T13:11:16.942Z,8.63
2023-02-25T13:13:52.646Z,7.43
2023-02-25T13:16:28.899Z,5.73
2023-02-25T13:19:02.016Z,7.33
2023-02-25T13:21:29.165Z,8.87
2023-02-25T13:24:02.568Z,7.73
2023-02-25T13:26:35.710Z,8.53
2023-02-25T13:29:14.831Z,8.43
2023-02-25T13:32:00.658Z,8.47
2023-02-25T13:34:46.448Z,7.10
2023-02-25T13:37:29.685Z,12.57
2023-02-25T13:40:05.357Z,11.63
2023-02-25T13:42:51.262Z,13.23
2023-02-25T13:45:37.089Z,8.70
2023-02-25T13:48:23.140Z,12.03
2023-02-25T13:51:13.647Z,25.73
2023-02-25T13:54:00.998Z,14.50
2023-02-25T13:56:37.006Z,9.73
2023-02-25T13:59:23.021Z,2.40
2023-02-25T14:02:05.085Z,4.50
2023-02-25T14:04:51.088Z,4.57
2023-02-25T14:07:32.911Z,6.27
2023-02-25T14:10:00.010Z,10.43
2023-02-25T14:12:27.113Z,8.97
2023-02-25T14:15:09.299Z,5.00
2023-02-25T14:17:55.357Z,5.97
2023-02-25T14:20:22.529Z,5.43
2023-02-25T14:22:55.810Z,8.00
2023-02-25T14:25:28.945Z,7.07
2023-02-25T14:27:58.794Z,7.57
2023-02-25T14:30:44.512Z,7.77
2023-02-25T14:33:11.700Z,8.27
2023-02-25T14:35:38.767Z,9.50
2023-02-25T14:38:14.945Z,8.07
2023-02-25T14:40:57.476Z,7.30
2023-02-25T14:43:35.289Z,6.43
2023-02-25T14:46:08.038Z,10.80
2023-02-25T14:48:48.734Z,10.90
2023-02-25T14:51:18.886Z,10.93
2023-02-25T14:53:46.024Z,8.00
2023-02-25T14:56:31.579Z,8.03
2023-02-25T14:58:58.702Z,10.10
2023-02-25T15:01:26.858Z,8.90
2023-02-25T15:04:13.076Z,12.57
2023-02-25T15:06:52.389Z,11.57
2023-02-25T15:09:20.813Z,9.43
2023-02-25T15:12:04.386Z,9.83
2023-02-25T15:15:04.029Z,9.27
2023-02-25T15:17:51.127Z,7.50
2023-02-25T15:20:18.331Z,9.37
2023-02-25T15:23:06.908Z,9.73
2023-02-25T15:25:38.850Z,11.47
2023-02-25T15:28:25.930Z,9.40
2023-02-25T15:30:59.214Z,8.60
2023-02-25T15:33:39.793Z,7.63
2023-02-25T15:36:15.766Z,8.80
2023-02-25T15:38:50.399Z,7.53
2023-02-25T15:41:29.504Z,7.93
2023-02-25T15:44:00.544Z,8.63
2023-02-25T15:46:37.148Z,10.77
2023-02-25T15:49:16.545Z,9.67
2023-02-25T15:51:48.486Z,21.70
2023-02-25T15:54:30.649Z,38.23
2023-02-25T15:57:01.352Z,13.80
2023-02-25T15:59:47.897Z,13.13
2023-02-25T16:02:30.139Z,10.60
2023-02-25T16:05:03.122Z,9.83
2023-02-25T16:07:35.126Z,8.20
2023-02-25T16:10:06.192Z,11.93
2023-02-25T16:12:33.634Z,10.90
2023-02-25T16:15:01.528Z,10.70
2023-02-25T16:17:28.640Z,7.00
2023-02-25T16:19:59.317Z,7.23
2023-02-25T16:22:29.919Z,11.60
2023-02-25T16:24:58.766Z,11.27
2023-02-25T16:27:37.414Z,11.13
2023-02-25T16:30:12.434Z,10.23
2023-02-25T16:32:43.924Z,14.27
2023-02-25T16:35:15.014Z,9.07
2023-02-25T16:38:02.896Z,9.17
2023-02-25T16:40:31.971Z,9.13
2023-02-25T16:42:59.669Z,13.10
2023-02-25T16:45:28.837Z,13.10
2023-02-25T16:47:58.265Z,10.33
2023-02-25T16:50:26.151Z,10.43
2023-02-25T16:52:53.958Z,9.33
2023-02-25T16:55:30.281Z,9.77
2023-02-25T16:58:05.318Z,13.43
2023-02-25T17:00:33.122Z,10.60
2023-02-25T17:03:01.628Z,10.07
2023-02-25T17:05:37.230Z,7.87
2023-02-25T17:08:06.322Z,8.83
2023-02-25T17:10:35.380Z,7.27
2023-02-25T17:13:03.357Z,6.67
2023-02-25T17:15:32.326Z,8.90
2023-02-25T17:18:10.947Z,9.90
2023-02-25T17:20:38.111Z,7.37
2023-02-25T17:23:11.126Z,10.80
2023-02-25T17:25:42.902Z,9.97
2023-02-25T17:28:16.813Z,7.77
2023-02-25T17:30:48.211Z,9.87
2023-02-25T17:33:25.761Z,9.27
2023-02-25T17:35:55.455Z,10.50
2023-02-25T17:38:24.727Z,12.60
2023-02-25T17:40:55.584Z,10.37
2023-02-25T17:43:27.004Z,11.13
2023-02-25T17:45:56.656Z,9.77
2023-02-25T17:48:28.533Z,9.60
2023-02-25T17:51:07.160Z,16.77
2023-02-25T17:53:34.283Z,13.90
2023-02-25T17:56:18.577Z,11.03
2023-02-25T17:58:46.040Z,11.50
2023-02-25T18:01:21.130Z,9.90
2023-02-25T18:03:48.362Z,9.23
2023-02-25T18:06:35.837Z,9.33
2023-02-25T18:09:03.394Z,8.60
2023-02-25T18:11:32.962Z,10.27
2023-02-25T18:14:05.397Z,8.67
2023-02-25T18:16:40.132Z,10.00
2023-02-25T18:19:12.168Z,21.90
2023-02-25T18:21:42.952Z,12.60
2023-02-25T18:24:22.043Z,14.10
2023-02-25T18:27:02.438Z,10.13
2023-02-25T18:29:29.539Z,17.10
2023-02-25T18:31:56.689Z,18.53
2023-02-25T18:34:23.868Z,8.40
2023-02-25T18:36:51.046Z,9.50
2023-02-25T18:39:19.517Z,12.47
2023-02-25T18:41:46.642Z,9.07
2023-02-25T18:44:14.462Z,11.10
2023-02-25T18:46:41.697Z,11.07
2023-02-25T18:49:08.926Z,10.43
2023-02-25T18:51:36.341Z,11.27
2023-02-25T18:54:03.456Z,10.70
2023-02-25T18:56:30.594Z,7.87
2023-02-25T18:58:57.934Z,11.33
2023-02-25T19:01:26.909Z,12.63
2023-02-25T19:03:59.279Z,10.07
2023-02-25T19:06:31.950Z,8.80
2023-02-25T19:08:59.038Z,9.23
2023-02-25T19:11:28.042Z,11.37
2023-02-25T19:13:55.179Z,7.17
2023-02-25T19:16:23.625Z,8.20
2023-02-25T19:18:50.961Z,10.57
2023-02-25T19:21:20.244Z,10.37
2023-02-25T19:23:51.649Z,10.97
2023-02-25T19:26:19.112Z,8.93
2023-02-25T19:28:46.272Z,11.07
2023-02-25T19:31:13.674Z,8.87
2023-02-25T19:33:40.894Z,10.37
2023-02-25T19:36:08.734Z,10.03
2023-02-25T19:38:35.910Z,8.17
2023-02-25T19:41:06.032Z,8.90
2023-02-25T19:43:33.432Z,9.77
2023-02-25T19:46:00.945Z,9.33
2023-02-25T19:48:28.152Z,10.83
2023-02-25T19:50:55.350Z,11.87
2023-02-25T19:53:22.518Z,9.27
2023-02-25T19:55:49.682Z,9.07
2023-02-25T19:58:16.861Z,10.50
2023-02-25T20:00:46.341Z,8.53
2023-02-25T20:03:13.891Z,8.63
2023-02-25T20:05:41.651Z,7.90
2023-02-25T20:08:09.136Z,10.87
2023-02-25T20:10:36.380Z,11.70
2023-02-25T20:13:03.574Z,9.67
2023-02-25T20:15:30.836Z,6.53
2023-02-25T20:17:58.430Z,8.53
2023-02-25T20:20:25.767Z,6.47
2023-02-25T20:22:53.296Z,9.60
2023-02-25T20:25:20.510Z,9.20
2023-02-25T20:27:47.730Z,7.33
2023-02-25T20:30:16.193Z,9.80
2023-02-25T20:32:44.923Z,6.47
2023-02-25T20:35:15.378Z,7.63
2023-02-25T20:37:45.053Z,7.10
2023-02-25T20:40:12.423Z,7.97
2023-02-25T20:42:39.619Z,6.10
2023-02-25T20:45:07.795Z,7.63
2023-02-25T20:47:36.463Z,8.83
2023-02-25T20:50:04.506Z,7.40
2023-02-25T20:52:31.770Z,9.53
2023-02-25T20:54:59.018Z,11.17
2023-02-25T20:57:27.485Z,9.13
2023-02-25T20:59:55.068Z,7.17
2023-02-25T21:02:22.316Z,8.93
2023-02-25T21:04:50.363Z,10.03
2023-02-25T21:07:17.529Z,8.73
2023-02-25T21:09:44.635Z,6.33
2023-02-25T21:12:11.790Z,9.23
2023-02-25T21:14:38.936Z,9.07
2023-02-25T21:17:09.460Z,11.50
2023-02-25T21:19:38.691Z,8.20
2023-02-25T21:22:06.339Z,9.60
2023-02-25T21:24:33.710Z,9.70
2023-02-25T21:27:04.397Z,10.83
2023-02-25T21:29:32.500Z,9.17
2023-02-25T21:31:59.748Z,9.43
2023-02-25T21:34:27.038Z,8.90
2023-02-25T21:36:56.314Z,8.67
2023-02-25T21:39:23.434Z,11.17
2023-02-25T21:41:50.882Z,10.40
2023-02-25T21:44:18.012Z,10.77
2023-02-25T21:46:45.132Z,10.87
2023-02-25T21:49:12.264Z,9.30
2023-02-25T21:51:40.264Z,13.33
2023-02-25T21:54:07.454Z,9.20
2023-02-25T21:56:34.611Z,11.23
2023-02-25T21:59:03.357Z,11.17
2023-02-25T22:01:31.844Z,15.37
2023-02-25T22:03:59.519Z,11.73
2023-02-25T22:06:27.232Z,8.53
2023-02-25T22:08:54.904Z,8.20
2023-02-25T22:11:23.082Z,7.30
2023-02-25T22:13:50.714Z,10.93
2023-02-25T22:16:18.224Z,9.23
2023-02-25T22:18:45.611Z,9.90
2023-02-25T22:21:18.827Z,8.73
2023-02-25T22:23:45.988Z,10.07
2023-02-25T22:26:14.932Z,8.70
2023-02-25T22:28:43.147Z,8.63
2023-02-25T22:31:14.548Z,8.83
2023-02-25T22:33:41.823Z,7.73
2023-02-25T22:36:09.633Z,8.73
2023-02-25T22:38:40.984Z,10.77
2023-02-25T22:41:12.277Z,11.87
2023-02-25T22:43:39.572Z,11.40
2023-02-25T22:46:10.342Z,11.83
2023-02-25T22:48:38.671Z,8.80
2023-02-25T22:51:06.430Z,10.03
2023-02-25T22:53:33.564Z,9.37
2023-02-25T22:56:03.948Z,10.93
2023-02-25T22:58:31.320Z,10.20
2023-02-25T23:00:59.059Z,9.63
2023-02-25T23:03:26.520Z,9.20
2023-02-25T23:05:54.785Z,9.50
2023-02-25T23:08:22.366Z,11.47
2023-02-25T23:10:49.541Z,13.40
2023-02-25T23:13:16.758Z,12.40
2023-02-25T23:15:47.351Z,13.20
2023-02-25T23:18:15.106Z,9.77
2023-02-25T23:20:42.289Z,14.63
2023-02-25T23:23:09.653Z,11.67
2023-02-25T23:25:38.749Z,11.13
2023-02-25T23:28:07.680Z,8.70
2023-02-25T23:30:37.803Z,10.90
2023-02-25T23:33:05.127Z,8.03
2023-02-25T23:35:33.412Z,13.87
2023-02-25T23:38:00.632Z,9.53
2023-02-25T23:40:28.875Z,11.87
2023-02-25T23:42:56.267Z,8.30
2023-02-25T23:45:23.505Z,14.07
2023-02-25T23:47:50.729Z,8.10
2023-02-25T23:50:19.128Z,9.67
2023-02-25T23:52:46.899Z,11.37
2023-02-25T23:55:16.162Z,13.60
2023-02-25T23:57:43.365Z,11.70
